Saipan, MP

4:01 AM ChST on May 23, 2015 (GMT +1000)
Red Cross-Airport | | Change Station
CLOSE
Current Station
Personal Weather Station
Location: Saipan, MP
Elevation: 215 ft
Nearby Weather Stations

Elev 215 ft 15.13 °N, 145.72 °E | Updated 20 minutes ago

Scattered Clouds
Scattered Clouds
80.1 °F
Feels Like 87 °F
N
7.0
Wind Variable Wind from ENE
Gusts 14.0 mph

Today
High -- | Low -- °F
--% Chance of Precip.
Yesterday
High -- | Low -- °F
Precip. -- in
5:46 AM 6:40 PM
Waxing Crescent, 23% visible
Pressure 29.96 in
Visibility 10.0 miles
Clouds Scattered Clouds 1900 ft
Heat Index 87 °F
Dew Point 78 °F
Humidity 95%
Rainfall -999.00 in
Snow Depth Not available.
UV 0 out of 12
Pollen Not available.
Air Quality Not available.
Flu Activity
METAR PGSN 221754Z 09007G16KT 10SM SCT019 26/23 A2990 RMK AO2 SLP146 T02610228 10272 20261 56010 $

More Conditions Fewer Conditions

Pressure 29.96 in
Visibility 10.0 miles
Clouds Scattered Clouds 1900 ft
Heat Index 87 °F
Dew Point 78 °F
Humidity 95%
Rainfall -999.00 in
Snow Depth Not available.
UV 0 out of 12
Pollen Not available.
Air Quality Not available.
Flu Activity
METAR PGSN 221754Z 09007G16KT 10SM SCT019 26/23 A2990 RMK AO2 SLP146 T02610228 10272 20261 56010 $

More Conditions Fewer Conditions

10-Day Weather Forecast

Almanac

Astronomy

May. 23, 2015 Rise Set
Actual Time
Civil Twilight
Nautical Twilight
Astronomical Twilight
Moon
Length of Visible Light
Length of Day
Tomorrow will be .
, % of the Moon is Illuminated

Today's Extremes

State Highs State Lows

Community

WunderPhotos

Upload Photos

1,823,272 photos uploaded!

WunderBlogs® & News

Nearby

Air Quality

  Air Quality AQ Index Pollutant
Not available.

Snow Depth

Station Depth Elevation

Earthquake Activity

City Distance Mag. Time & Date
Minimum magnitude displayed is 2.5.

Coastal Water Temperatures

Place Temperature

Stations

Nearby Weather Stations

Station Location Temp. Windchill Dew Point Humidity Wind Precip. Elev Updated Type